Time;durP1;ratioP1;P1;durP2;ratioP2;P2;SDS_P1;SDS_P2;PMS_P1;PMS_P2;Temp;Humidity;BMP_temperature;BMP_pressure;BME280_temperature;BME280_humidity;BME280_pressure;Samples;Min_cycle;Max_cycle;Signal;HPM_P1;HPM_P2
2022/04/07 00:00:25;;;;;;;2.15;0.85;;;;;;;9.74;94.30;97361.66;5056400;28;20032;-70
2022/04/07 00:02:50;;;;;;;0.95;0.77;;;;;;;9.71;94.59;97354.03;5050919;28;20054;-71
2022/04/07 00:05:15;;;;;;;1.60;0.70;;;;;;;9.64;94.06;97347.91;5046552;28;20110;-70
2022/04/07 00:07:41;;;;;;;1.23;0.77;;;;;;;9.75;92.40;97352.50;5057429;28;20020;-70
2022/04/07 00:10:06;;;;;;;1.50;0.95;;;;;;;9.68;92.60;97341.00;5048316;28;20035;-71
2022/04/07 00:12:33;;;;;;;0.85;0.70;;;;;;;9.76;90.42;97358.72;5055059;28;20026;-70
2022/04/07 00:15:00;;;;;;;0.95;0.73;;;;;;;9.72;90.48;97355.69;5062144;28;20029;-70
2022/04/07 00:17:27;;;;;;;1.42;0.82;;;;;;;9.77;90.40;97353.09;5066603;28;20028;-71
2022/04/07 00:19:52;;;;;;;1.50;0.63;;;;;;;9.66;91.01;97346.59;5074110;28;20094;-70
2022/04/07 00:22:17;;;;;;;1.10;0.80;;;;;;;9.63;90.88;97335.47;5074473;28;20009;-71
2022/04/07 00:24:43;;;;;;;3.90;0.70;;;;;;;9.59;91.56;97329.72;5071287;28;20020;-70
2022/04/07 00:27:09;;;;;;;0.80;0.70;;;;;;;9.48;92.41;97321.59;5071924;28;20032;-70
2022/04/07 00:29:34;;;;;;;4.85;0.90;;;;;;;9.46;92.52;97327.25;5074965;28;20009;-71
2022/04/07 00:32:03;;;;;;;1.10;0.60;;;;;;;9.39;92.98;97313.84;5075327;28;20043;-71
2022/04/07 00:34:29;;;;;;;2.30;0.90;;;;;;;9.36;92.95;97314.31;5060134;28;20025;-70
2022/04/07 00:36:55;;;;;;;2.00;0.50;;;;;;;9.40;92.02;97314.66;5074551;28;20037;-71
2022/04/07 00:39:20;;;;;;;1.08;0.77;;;;;;;9.39;92.23;97305.72;5074678;28;20048;-71
2022/04/07 00:41:46;;;;;;;1.50;0.70;;;;;;;9.42;90.93;97307.16;5071847;28;20025;-70
2022/04/07 00:44:11;;;;;;;1.85;0.70;;;;;;;9.39;90.82;97302.22;5071898;28;20047;-70
2022/04/07 00:46:38;;;;;;;1.10;0.68;;;;;;;9.37;89.77;97290.81;5076808;28;20035;-70
2022/04/07 00:49:04;;;;;;;1.00;0.60;;;;;;;9.31;90.17;97292.59;5074845;28;20056;-70
2022/04/07 00:51:30;;;;;;;1.83;0.80;;;;;;;9.33;88.37;97285.09;5074765;28;20075;-71
2022/04/07 00:53:56;;;;;;;1.73;0.60;;;;;;;9.25;88.01;97290.81;5069380;28;20028;-71
2022/04/07 00:56:22;;;;;;;0.70;0.40;;;;;;;9.15;88.13;97279.78;5064901;28;20016;-70
2022/04/07 00:58:47;;;;;;;1.02;0.80;;;;;;;9.20;87.49;97286.13;5077039;28;20009;-70
2022/04/07 01:01:14;;;;;;;0.93;0.60;;;;;;;9.20;87.01;97288.00;5075557;28;20028;-72
2022/04/07 01:03:40;;;;;;;2.65;0.73;;;;;;;9.02;87.62;97277.28;5067899;28;20024;-71
2022/04/07 01:06:05;;;;;;;0.73;0.50;;;;;;;9.09;87.61;97278.81;5075929;28;20029;-70
2022/04/07 01:08:31;;;;;;;0.50;0.40;;;;;;;9.08;87.15;97284.44;5073878;28;20020;-70
2022/04/07 01:10:56;;;;;;;1.08;0.40;;;;;;;9.17;86.53;97283.06;5064529;28;20105;-71
2022/04/07 01:13:22;;;;;;;0.95;0.50;;;;;;;9.13;86.69;97284.56;5072368;28;20039;-71
2022/04/07 01:15:47;;;;;;;1.42;0.38;;;;;;;9.03;86.72;97257.34;5076862;28;20067;-71
2022/04/07 01:18:14;;;;;;;0.63;0.52;;;;;;;9.04;86.45;97261.66;5075026;28;20052;-71
2022/04/07 01:20:40;;;;;;;0.50;0.40;;;;;;;9.00;86.32;97266.72;5074616;28;20027;-71
2022/04/07 01:23:07;;;;;;;0.63;0.40;;;;;;;8.95;86.17;97253.91;5072528;28;20029;-71
2022/04/07 01:25:33;;;;;;;0.52;0.32;;;;;;;9.05;85.54;97261.44;5072695;28;20021;-71
2022/04/07 01:27:58;;;;;;;2.50;0.70;;;;;;;8.95;85.90;97253.09;5071390;28;20032;-71
2022/04/07 01:30:24;;;;;;;2.05;0.50;;;;;;;8.96;85.66;97250.19;5074101;28;20001;-71
2022/04/07 01:32:56;;;;;;;0.82;0.40;;;;;;;9.02;85.87;97247.63;5065329;28;20021;-71
2022/04/07 01:35:22;;;;;;;1.55;0.55;;;;;;;8.93;86.57;97242.56;5070042;28;20017;-70
2022/04/07 01:37:48;;;;;;;0.63;0.40;;;;;;;8.90;87.05;97243.00;5072869;28;20040;-71
2022/04/07 01:40:16;;;;;;;1.10;0.50;;;;;;;8.83;87.45;97238.75;5075749;28;20021;-71
2022/04/07 01:42:45;;;;;;;2.53;0.65;;;;;;;8.73;88.56;97239.31;5068081;28;20009;-71
2022/04/07 01:45:11;;;;;;;1.00;0.43;;;;;;;8.53;89.62;97215.34;5072605;28;20021;-70
2022/04/07 01:47:39;;;;;;;0.40;0.40;;;;;;;8.63;90.29;97233.66;5071122;28;20033;-71
2022/04/07 01:50:10;;;;;;;0.80;0.53;;;;;;;8.64;90.13;97240.69;5072781;28;20033;-71
2022/04/07 01:52:39;;;;;;;0.73;0.55;;;;;;;8.59;91.17;97243.25;5066892;28;20033;-71
2022/04/07 01:55:06;;;;;;;0.85;0.63;;;;;;;8.55;91.53;97246.41;5068601;28;20025;-71
2022/04/07 01:57:32;;;;;;;1.65;0.50;;;;;;;8.63;90.86;97255.22;5062079;28;20036;-71
2022/04/07 01:59:59;;;;;;;1.00;0.50;;;;;;;8.67;90.55;97253.72;5064862;28;20051;-71
2022/04/07 02:02:24;;;;;;;0.95;0.40;;;;;;;8.73;89.83;97260.91;5060614;28;20033;-71
2022/04/07 02:04:54;;;;;;;0.90;0.40;;;;;;;8.82;89.59;97254.09;5062842;28;20025;-70
2022/04/07 02:07:19;;;;;;;0.65;0.30;;;;;;;8.75;89.33;97238.06;5055386;28;20027;-71
2022/04/07 02:09:44;;;;;;;2.25;0.40;;;;;;;8.82;88.76;97231.72;5063526;28;20120;-70
2022/04/07 02:12:10;;;;;;;0.40;0.30;;;;;;;8.80;88.44;97220.34;5063698;28;20032;-71
2022/04/07 02:14:35;;;;;;;0.28;0.20;;;;;;;8.78;89.06;97220.59;5062910;28;20051;-71
2022/04/07 02:17:01;;;;;;;1.30;0.30;;;;;;;8.88;89.15;97228.94;5065991;28;20509;-71
2022/04/07 02:19:26;;;;;;;0.98;0.30;;;;;;;8.88;89.41;97220.00;5067857;28;20031;-71
2022/04/07 02:21:52;;;;;;;1.17;0.50;;;;;;;8.75;90.77;97211.09;5046366;28;20550;-70
2022/04/07 02:24:17;;;;;;;0.40;0.30;;;;;;;8.67;91.42;97195.25;5051858;28;20048;-71
2022/04/07 02:26:43;;;;;;;1.02;0.50;;;;;;;8.93;91.38;97223.69;5043105;28;20101;-71
2022/04/07 02:29:08;;;;;;;0.57;0.50;;;;;;;8.96;90.60;97201.63;5053425;28;20021;-71
2022/04/07 02:31:33;;;;;;;0.60;0.30;;;;;;;9.10;89.76;97209.50;5050734;28;20037;-70
2022/04/07 02:33:58;;;;;;;1.48;0.30;;;;;;;9.16;89.34;97203.97;5051490;28;20085;-71
2022/04/07 02:36:24;;;;;;;0.38;0.30;;;;;;;9.20;89.20;97215.97;5050231;28;20498;-70
2022/04/07 02:38:49;;;;;;;0.60;0.40;;;;;;;9.18;89.41;97198.34;5048082;28;20066;-71
2022/04/07 02:41:14;;;;;;;0.32;0.28;;;;;;;9.27;89.55;97221.22;5052299;28;20031;-70
2022/04/07 02:43:40;;;;;;;1.00;0.30;;;;;;;9.20;91.24;97225.94;5050548;28;20112;-70
2022/04/07 02:46:05;;;;;;;0.45;0.30;;;;;;;9.04;92.29;97223.91;5053006;28;20471;-71
2022/04/07 02:48:30;;;;;;;0.82;0.40;;;;;;;8.85;94.19;97198.91;5090498;22;20040;-71
2022/04/07 02:50:56;;;;;;;0.45;0.30;;;;;;;8.78;94.75;97209.81;5053248;28;20146;-71
2022/04/07 02:53:21;;;;;;;0.40;0.32;;;;;;;8.74;96.50;97219.38;5051684;28;20089;-73
2022/04/07 02:55:46;;;;;;;0.57;0.38;;;;;;;8.71;97.50;97217.16;5033306;28;20036;-70
2022/04/07 02:58:11;;;;;;;0.30;0.20;;;;;;;8.64;97.76;97216.44;5031117;28;20059;-72
2022/04/07 03:00:37;;;;;;;1.20;0.30;;;;;;;8.40;99.36;97192.09;5031011;28;20022;-72
2022/04/07 03:03:02;;;;;;;1.75;0.40;;;;;;;8.22;100.00;97173.25;5026466;28;20093;-72
2022/04/07 03:05:27;;;;;;;0.80;0.40;;;;;;;8.44;100.00;97212.16;5028379;28;20033;-72
2022/04/07 03:07:53;;;;;;;0.93;0.40;;;;;;;8.37;100.00;97216.78;5029660;28;20026;-73
2022/04/07 03:10:18;;;;;;;2.13;0.65;;;;;;;8.35;100.00;97205.41;5016445;28;20026;-71
2022/04/07 03:12:43;;;;;;;1.17;0.50;;;;;;;8.18;100.00;97180.97;5009388;28;20494;-71
2022/04/07 03:15:09;;;;;;;1.88;0.40;;;;;;;8.28;100.00;97199.31;5011965;28;20116;-71
2022/04/07 03:17:35;;;;;;;0.63;0.30;;;;;;;8.16;100.00;97179.56;5008061;28;20029;-71
2022/04/07 03:20:01;;;;;;;0.57;0.40;;;;;;;8.12;100.00;97177.31;5007814;28;20030;-71
2022/04/07 03:22:26;;;;;;;0.30;0.30;;;;;;;8.23;100.00;97204.56;4998011;28;20033;-72
2022/04/07 03:24:52;;;;;;;1.38;0.55;;;;;;;8.29;100.00;97187.47;4993179;28;20027;-74
2022/04/07 03:27:18;;;;;;;0.40;0.30;;;;;;;8.19;100.00;97173.72;5012201;28;20104;-71
2022/04/07 03:29:43;;;;;;;0.50;0.40;;;;;;;8.30;100.00;97184.53;5013112;28;20022;-72
2022/04/07 03:32:09;;;;;;;3.38;0.50;;;;;;;8.37;100.00;97181.75;4992809;28;20116;-71
2022/04/07 03:34:34;;;;;;;1.30;0.50;;;;;;;8.35;100.00;97168.50;5014356;28;20441;-71
2022/04/07 03:37:00;;;;;;;0.75;0.40;;;;;;;8.40;100.00;97170.53;5014290;28;20027;-74
2022/04/07 03:39:25;;;;;;;0.38;0.28;;;;;;;8.42;100.00;97154.16;5006430;28;20026;-73
2022/04/07 03:41:51;;;;;;;0.68;0.40;;;;;;;8.37;100.00;97157.50;5017260;28;20109;-75
2022/04/07 03:44:16;;;;;;;0.60;0.40;;;;;;;8.43;100.00;97153.91;4996200;28;20483;-74
2022/04/07 03:46:42;;;;;;;0.52;0.38;;;;;;;8.44;100.00;97152.06;5012080;28;20078;-74
2022/04/07 03:49:07;;;;;;;0.75;0.40;;;;;;;8.50;100.00;97160.03;5016935;28;20029;-73
2022/04/07 03:51:32;;;;;;;1.15;0.40;;;;;;;8.53;100.00;97148.78;5013093;28;20121;-73
2022/04/07 03:53:58;;;;;;;1.25;0.55;;;;;;;8.52;98.15;97138.25;5014731;28;20033;-77
2022/04/07 03:56:23;;;;;;;0.57;0.35;;;;;;;8.66;98.29;97149.63;5004525;28;20065;-76
2022/04/07 03:58:48;;;;;;;1.00;0.40;;;;;;;8.68;97.66;97142.94;5015906;28;20136;-68
2022/04/07 04:01:14;;;;;;;0.32;0.17;;;;;;;8.59;97.35;97130.03;5011008;28;20052;-75
2022/04/07 04:03:39;;;;;;;1.52;0.40;;;;;;;8.67;97.46;97132.38;5003766;28;20021;-70
2022/04/07 04:06:05;;;;;;;0.80;0.57;;;;;;;8.64;97.25;97116.69;5015188;28;20117;-75
2022/04/07 04:08:31;;;;;;;0.57;0.30;;;;;;;8.72;95.88;97114.50;4999422;28;20037;-75
2022/04/07 04:10:56;;;;;;;0.93;0.43;;;;;;;8.73;95.21;97120.69;5013808;28;20112;-71
2022/04/07 04:13:22;;;;;;;0.70;0.40;;;;;;;8.25;95.27;97040.78;5011499;28;20109;-74
2022/04/07 04:15:47;;;;;;;0.65;0.40;;;;;;;8.41;94.63;97053.63;5004104;28;20029;-76
2022/04/07 04:18:13;;;;;;;1.65;0.70;;;;;;;8.77;94.42;97101.09;5010690;28;20014;-68
2022/04/07 04:20:39;;;;;;;0.50;0.40;;;;;;;8.75;93.17;97086.22;5006129;28;20030;-74
2022/04/07 04:23:04;;;;;;;1.75;0.30;;;;;;;8.78;92.98;97083.06;5012068;28;20112;-74
2022/04/07 04:25:30;;;;;;;0.60;0.40;;;;;;;8.77;92.56;97073.31;5011181;28;20084;-73
2022/04/07 04:27:55;;;;;;;0.30;0.30;;;;;;;8.70;91.63;97046.50;5000695;28;20026;-72
2022/04/07 04:30:21;;;;;;;1.02;0.30;;;;;;;8.96;91.48;97084.81;4996175;28;20083;-66
2022/04/07 04:32:46;;;;;;;2.15;0.50;;;;;;;8.95;91.31;97092.06;5014477;28;20041;-69
2022/04/07 04:35:11;;;;;;;0.70;0.38;;;;;;;8.92;90.84;97086.34;5012676;28;20038;-70
2022/04/07 04:37:38;;;;;;;1.20;0.40;;;;;;;8.97;89.82;97084.56;5011231;28;20027;-70
2022/04/07 04:40:03;;;;;;;0.77;0.28;;;;;;;9.01;89.90;97084.91;5013096;28;20049;-70
2022/04/07 04:42:29;;;;;;;1.23;0.50;;;;;;;8.91;89.28;97063.94;4991515;28;20052;-74
2022/04/07 04:44:54;;;;;;;0.90;0.43;;;;;;;8.92;89.34;97064.78;5012366;28;20109;-75
2022/04/07 04:47:19;;;;;;;1.02;0.50;;;;;;;9.03;90.30;97087.38;5011757;28;20038;-72
2022/04/07 04:49:45;;;;;;;0.57;0.32;;;;;;;8.98;90.05;97086.22;4990147;28;20398;-74
2022/04/07 04:52:11;;;;;;;1.20;0.40;;;;;;;8.93;89.47;97067.25;5010064;28;20033;-69
2022/04/07 04:54:37;;;;;;;0.95;0.43;;;;;;;9.03;89.48;97084.69;5006035;28;20434;-68
2022/04/07 04:57:02;;;;;;;0.50;0.30;;;;;;;9.04;89.33;97080.94;5013731;28;20050;-66
2022/04/07 04:59:27;;;;;;;0.80;0.40;;;;;;;9.03;89.78;97076.59;5012771;28;20061;-70
2022/04/07 05:01:53;;;;;;;0.93;0.50;;;;;;;9.05;89.67;97069.91;4995526;28;20037;-72
2022/04/07 05:04:19;;;;;;;5.50;0.80;;;;;;;8.96;89.64;97066.75;5011388;28;20048;-77
2022/04/07 05:06:44;;;;;;;1.40;0.75;;;;;;;9.04;89.17;97067.44;5009805;28;20057;-70
2022/04/07 05:09:09;;;;;;;1.05;0.50;;;;;;;9.10;88.52;97080.00;5015360;28;20547;-72
2022/04/07 05:11:35;;;;;;;0.60;0.57;;;;;;;9.16;88.56;97073.66;5011873;28;20104;-72
2022/04/07 05:14:00;;;;;;;1.25;0.55;;;;;;;9.15;88.54;97066.63;5009439;28;20033;-76
2022/04/07 05:16:26;;;;;;;0.90;0.60;;;;;;;9.04;89.49;97062.88;5012321;28;20101;-78
2022/04/07 05:18:52;;;;;;;0.80;0.50;;;;;;;9.18;88.70;97080.44;5008446;28;20025;-76
2022/04/07 05:21:17;;;;;;;0.75;0.40;;;;;;;9.12;87.78;97064.41;4997216;28;20029;-74
2022/04/07 05:23:43;;;;;;;0.45;0.40;;;;;;;9.17;87.38;97075.31;5014188;28;20029;-75
2022/04/07 05:26:08;;;;;;;0.65;0.43;;;;;;;9.36;87.67;97084.88;4994744;28;20030;-76
2022/04/07 05:28:34;;;;;;;0.90;0.45;;;;;;;9.16;87.80;97060.97;4982496;28;20569;-72
2022/04/07 05:30:59;;;;;;;2.17;0.68;;;;;;;9.44;87.28;97089.91;4994707;28;20040;-76
2022/04/07 05:33:25;;;;;;;0.65;0.50;;;;;;;9.19;86.94;97030.00;5009509;28;20053;-72
2022/04/07 05:35:52;;;;;;;1.70;0.80;;;;;;;9.48;85.63;97067.84;5019923;28;20025;-74
2022/04/07 05:38:17;;;;;;;4.18;0.95;;;;;;;9.39;85.38;97062.81;5013986;28;20011;-78
2022/04/07 05:40:43;;;;;;;1.60;1.00;;;;;;;9.41;85.71;97049.09;5007903;28;20017;-74
2022/04/07 05:43:08;;;;;;;3.00;0.70;;;;;;;9.53;84.98;97066.06;5016676;28;20037;-75
2022/04/07 05:45:34;;;;;;;1.45;0.85;;;;;;;9.37;84.91;97029.84;5016274;28;20124;-74
2022/04/07 05:48:00;;;;;;;1.98;0.98;;;;;;;9.61;84.21;97059.47;4998314;28;20369;-75
2022/04/07 05:50:25;;;;;;;1.98;0.60;;;;;;;9.72;84.20;97060.47;5016008;28;20483;-75
2022/04/07 05:52:50;;;;;;;1.80;0.47;;;;;;;9.64;83.64;97034.66;4999590;28;20450;-69
2022/04/07 05:55:15;;;;;;;1.23;0.40;;;;;;;9.72;83.51;97041.56;5009118;28;20035;-75
2022/04/07 05:57:41;;;;;;;0.98;0.50;;;;;;;9.66;84.02;97036.06;5010500;28;20450;-70
2022/04/07 06:00:13;;;;;;;0.60;0.52;;;;;;;9.54;84.61;97024.53;4992448;28;20022;-69
2022/04/07 06:02:40;;;;;;;0.70;0.35;;;;;;;9.59;83.78;97018.41;5007979;28;20025;-75
2022/04/07 06:05:07;;;;;;;0.98;0.35;;;;;;;9.71;83.27;97013.75;5004596;28;20093;-67
2022/04/07 06:07:32;;;;;;;0.70;0.60;;;;;;;9.76;82.25;97007.63;5008506;28;20026;-73
2022/04/07 06:09:58;;;;;;;0.50;0.30;;;;;;;10.10;81.53;97000.41;5014074;28;20022;-71
2022/04/07 06:12:23;;;;;;;4.47;0.40;;;;;;;10.14;80.05;96969.13;4996068;28;20025;-73
2022/04/07 06:14:48;;;;;;;0.95;0.30;;;;;;;10.50;78.74;97002.16;5013736;28;20022;-66
2022/04/07 06:17:14;;;;;;;0.52;0.25;;;;;;;10.67;77.96;96996.72;5009018;28;20452;-68
2022/04/07 06:19:39;;;;;;;0.95;0.45;;;;;;;11.08;75.98;97006.25;5014104;28;20446;-68
2022/04/07 06:22:07;;;;;;;0.45;0.30;;;;;;;10.94;76.39;96994.13;5014062;28;20030;-69
2022/04/07 06:24:32;;;;;;;1.30;0.40;;;;;;;10.61;77.23;97001.25;4998150;28;20022;-70
2022/04/07 06:26:58;;;;;;;0.38;0.32;;;;;;;10.34;78.56;96986.75;5005371;28;20026;-69
2022/04/07 06:29:23;;;;;;;1.88;0.50;;;;;;;10.28;79.12;96991.28;5017276;28;20085;-80
2022/04/07 06:31:48;;;;;;;1.50;0.38;;;;;;;10.06;79.62;96956.84;4995836;28;20435;-73
2022/04/07 06:34:14;;;;;;;5.80;0.40;;;;;;;10.06;79.73;96977.63;5011504;28;20030;-76
2022/04/07 06:36:39;;;;;;;0.52;0.30;;;;;;;10.08;79.36;96989.00;5003212;28;20051;-76
2022/04/07 06:39:04;;;;;;;1.55;0.50;;;;;;;10.11;78.90;96980.41;5015541;28;20079;-70
2022/04/07 06:41:29;;;;;;;0.70;0.30;;;;;;;10.07;79.34;96963.06;5008558;28;20026;-73
2022/04/07 06:43:55;;;;;;;0.52;0.43;;;;;;;10.04;80.35;96958.97;5017607;28;20418;-72
2022/04/07 06:46:22;;;;;;;0.88;0.50;;;;;;;10.11;79.42;96958.78;5006810;28;20065;-73
2022/04/07 06:48:47;;;;;;;0.98;0.50;;;;;;;10.02;79.73;96958.38;4993419;28;20040;-73
2022/04/07 06:51:14;;;;;;;3.17;0.70;;;;;;;9.93;79.51;96932.88;5011337;28;20480;-72
2022/04/07 06:53:39;;;;;;;0.30;0.30;;;;;;;9.92;79.70;96930.41;5013223;28;20030;-73
2022/04/07 06:56:04;;;;;;;0.57;0.30;;;;;;;10.06;79.16;96956.00;4986334;28;20032;-72
2022/04/07 06:58:30;;;;;;;1.98;0.40;;;;;;;10.05;78.81;96940.88;5001558;28;20041;-74
2022/04/07 07:00:55;;;;;;;1.73;0.30;;;;;;;10.06;78.63;96932.53;5002243;28;20112;-72
2022/04/07 07:03:20;;;;;;;0.65;0.30;;;;;;;10.24;77.72;96949.53;5012505;28;20412;-74
2022/04/07 07:05:45;;;;;;;0.45;0.10;;;;;;;10.31;77.07;96926.72;5012980;28;20076;-71
2022/04/07 07:08:20;;;;;;;0.20;0.20;;;;;;;10.30;77.88;96933.19;5007390;28;20156;-75
2022/04/07 07:10:47;;;;;;;1.88;0.30;;;;;;;10.36;78.17;96935.97;4999299;28;20026;-74
2022/04/07 07:13:16;;;;;;;0.40;0.13;;;;;;;10.21;77.13;96902.19;5009519;28;20062;-71
2022/04/07 07:15:42;;;;;;;2.78;0.20;;;;;;;10.25;76.21;96886.34;4994525;28;20017;-73
2022/04/07 07:18:07;;;;;;;3.95;0.20;;;;;;;10.41;76.15;96915.25;5005965;28;20034;-75
2022/04/07 07:20:33;;;;;;;0.30;0.30;;;;;;;10.38;76.57;96906.81;5009233;28;20077;-75
2022/04/07 07:22:58;;;;;;;0.65;0.17;;;;;;;10.41;76.19;96909.03;5013109;28;20033;-79
2022/04/07 07:25:24;;;;;;;0.30;0.20;;;;;;;10.51;75.02;96914.56;4997291;28;20123;-70
2022/04/07 07:27:49;;;;;;;0.65;0.10;;;;;;;10.39;75.51;96878.72;5007381;28;20112;-73
2022/04/07 07:30:17;;;;;;;0.63;0.20;;;;;;;10.70;74.54;96902.38;4983790;28;20116;-76
2022/04/07 07:32:45;;;;;;;1.10;0.20;;;;;;;10.75;74.16;96888.94;5006678;28;20022;-72
2022/04/07 07:35:11;;;;;;;0.32;0.20;;;;;;;10.89;73.13;96888.53;5008597;28;20037;-74
2022/04/07 07:37:37;;;;;;;0.40;0.15;;;;;;;11.04;72.84;96899.56;5001797;28;20026;-75
2022/04/07 07:40:07;;;;;;;1.75;0.10;;;;;;;10.88;72.77;96862.56;4994826;28;20026;-75
2022/04/07 07:42:33;;;;;;;0.45;0.20;;;;;;;11.03;72.67;96884.41;5011535;28;20353;-73
2022/04/07 07:44:58;;;;;;;0.80;0.10;;;;;;;11.09;72.96;96887.97;5006683;28;20045;-76
2022/04/07 07:47:23;;;;;;;1.70;0.68;;;;;;;11.08;73.05;96859.25;4989798;28;20084;-73
2022/04/07 07:49:48;;;;;;;0.30;0.20;;;;;;;11.16;73.67;96884.00;5013656;28;20033;-70
2022/04/07 07:52:14;;;;;;;0.63;0.20;;;;;;;11.08;74.11;96870.91;5013775;28;20033;-73
2022/04/07 07:54:39;;;;;;;0.43;0.10;;;;;;;10.60;76.42;96826.53;5013447;28;20026;-72
2022/04/07 07:57:04;;;;;;;0.52;0.20;;;;;;;10.56;76.20;96843.50;5020875;28;20074;-74
2022/04/07 07:59:36;;;;;;;0.57;0.10;;;;;;;10.52;77.14;96830.50;5028552;28;20046;-73
2022/04/07 08:02:01;;;;;;;0.93;0.20;;;;;;;10.54;77.47;96832.94;5014739;28;20097;-74
2022/04/07 08:04:26;;;;;;;0.50;0.10;;;;;;;10.63;75.75;96842.25;5024643;28;20017;-73
2022/04/07 08:06:52;;;;;;;0.00;0.00;;;;;;;10.62;74.95;96827.09;5028234;28;20510;-74
2022/04/07 08:09:17;;;;;;;0.17;0.13;;;;;;;10.72;75.65;96829.13;5032609;28;20036;-75
2022/04/07 08:11:42;;;;;;;0.73;0.52;;;;;;;10.93;74.47;96841.00;5032909;28;20020;-73
2022/04/07 08:14:09;;;;;;;0.88;0.20;;;;;;;11.03;73.26;96841.09;5015779;28;20025;-73
2022/04/07 08:16:35;;;;;;;0.85;0.20;;;;;;;11.08;72.83;96833.03;5022691;28;20391;-72
2022/04/07 08:19:00;;;;;;;0.88;0.28;;;;;;;11.21;72.99;96815.53;5007776;28;20096;-71
2022/04/07 08:21:26;;;;;;;2.85;0.20;;;;;;;11.33;72.06;96824.31;5034519;28;20026;-72
2022/04/07 08:23:52;;;;;;;1.33;0.08;;;;;;;11.32;71.46;96792.13;5028637;28;20085;-75
2022/04/07 08:26:17;;;;;;;3.85;0.30;;;;;;;11.58;71.45;96810.22;5023794;28;20034;-73
2022/04/07 08:28:42;;;;;;;0.20;0.20;;;;;;;11.70;70.35;96787.53;5020764;28;20032;-76
2022/04/07 08:31:08;;;;;;;1.27;0.20;;;;;;;11.96;69.12;96794.78;5013541;28;20423;-70
2022/04/07 08:33:33;;;;;;;0.30;0.20;;;;;;;12.04;67.85;96797.00;5003018;28;20028;-74
2022/04/07 08:35:58;;;;;;;0.38;0.20;;;;;;;12.15;67.55;96788.91;5003380;28;20029;-72
2022/04/07 08:38:24;;;;;;;0.80;0.30;;;;;;;11.94;68.05;96775.25;5016527;28;20024;-74
2022/04/07 08:40:53;;;;;;;1.65;0.25;;;;;;;11.90;68.71;96797.72;5006032;28;20038;-75
2022/04/07 08:43:18;;;;;;;;;;;;;;;11.88;69.40;96808.81;5007991;28;20029;-75
2022/04/07 08:45:44;;;;;;;3.42;0.28;;;;;;;11.85;69.07;96793.06;5015843;28;20012;-75
2022/04/07 08:48:12;;;;;;;3.00;0.20;;;;;;;11.77;68.91;96775.41;5055968;23;20045;-70
2022/04/07 08:50:41;;;;;;;0.55;0.20;;;;;;;11.75;68.91;96785.66;5043546;28;20265;-71
2022/04/07 08:53:08;;;;;;;4.15;0.22;;;;;;;11.84;69.40;96781.41;5045778;28;20035;-71
2022/04/07 08:55:37;;;;;;;0.63;0.13;;;;;;;11.76;68.37;96764.81;5043564;28;20032;-71
2022/04/07 08:58:02;;;;;;;0.85;0.30;;;;;;;11.78;69.14;96771.59;5049748;28;20021;-73
2022/04/07 09:00:28;;;;;;;1.20;0.40;;;;;;;11.92;69.25;96772.00;5037764;28;20029;-71
2022/04/07 09:02:54;;;;;;;1.50;0.40;;;;;;;11.78;69.06;96749.94;5042872;28;20039;-73
2022/04/07 09:05:24;;;;;;;0.77;0.22;;;;;;;11.93;68.65;96762.78;5040225;28;20021;-71
2022/04/07 09:07:54;;;;;;;1.00;0.28;;;;;;;11.87;68.89;96749.47;5034035;28;20056;-73
2022/04/07 09:10:22;;;;;;;1.55;0.30;;;;;;;12.07;68.46;96753.09;5048879;28;20017;-70
2022/04/07 09:12:48;;;;;;;0.30;0.20;;;;;;;12.10;68.39;96753.66;5045318;28;20487;-68
2022/04/07 09:15:13;;;;;;;0.80;0.25;;;;;;;12.05;67.60;96736.31;5047771;28;20033;-67
2022/04/07 09:17:55;;;;;;;0.32;0.20;;;;;;;12.29;67.03;96738.59;5039746;28;20394;-75
2022/04/07 09:20:22;;;;;;;1.08;0.30;;;;;;;12.31;65.68;96744.53;5058433;28;20029;-70
2022/04/07 09:22:58;;;;;;;0.80;0.15;;;;;;;12.23;66.27;96739.63;5039383;28;20108;-70
2022/04/07 09:25:25;;;;;;;1.48;0.10;;;;;;;12.19;66.37;96716.84;5052860;28;20046;-69
2022/04/07 09:27:51;;;;;;;1.98;0.25;;;;;;;12.24;65.48;96706.84;5052265;28;20450;-72
2022/04/07 09:30:16;;;;;;;0.50;0.25;;;;;;;12.06;66.86;96669.34;5052412;28;20057;-71
2022/04/07 09:32:43;;;;;;;0.60;0.20;;;;;;;12.11;67.02;96692.97;5047266;28;20055;-69
2022/04/07 09:35:09;;;;;;;1.35;0.20;;;;;;;11.92;69.05;96698.00;5043933;28;20501;-69
2022/04/07 09:37:36;;;;;;;0.90;0.20;;;;;;;11.79;71.09;96720.97;5038569;28;20108;-70
2022/04/07 09:40:09;;;;;;;0.43;0.10;;;;;;;11.88;71.49;96743.78;5050579;28;20029;-74
2022/04/07 09:42:35;;;;;;;0.25;0.10;;;;;;;11.63;72.47;96733.56;5043953;28;20036;-74
2022/04/07 09:45:03;;;;;;;2.45;0.10;;;;;;;11.41;72.43;96695.78;5036846;28;20437;-71
2022/04/07 09:47:37;;;;;;;0.00;0.00;;;;;;;11.30;73.60;96692.19;5041308;28;20132;-73
2022/04/07 09:50:03;;;;;;;1.02;0.10;;;;;;;11.33;73.55;96704.41;5038132;28;20491;-72
2022/04/07 09:52:29;;;;;;;1.92;0.15;;;;;;;11.38;73.39;96696.31;5058441;28;20036;-72
2022/04/07 09:55:04;;;;;;;0.30;0.10;;;;;;;11.54;74.07;96708.88;5041931;28;20025;-73
2022/04/07 09:57:30;;;;;;;0.20;0.08;;;;;;;11.55;72.13;96691.56;5064644;28;20048;-71
2022/04/07 09:59:57;;;;;;;0.90;0.20;;;;;;;11.35;74.59;96675.19;5061331;28;20116;-73
2022/04/07 10:02:23;;;;;;;0.50;0.10;;;;;;;11.63;73.21;96680.25;5035349;28;20525;-75
2022/04/07 10:04:50;;;;;;;0.85;0.10;;;;;;;11.51;73.90;96659.84;5057748;28;20032;-72
2022/04/07 10:07:15;;;;;;;2.92;0.35;;;;;;;11.50;73.72;96667.16;5040848;28;20025;-68
2022/04/07 10:09:46;;;;;;;2.65;0.20;;;;;;;11.63;72.84;96658.56;5042338;28;20030;-72
2022/04/07 10:12:12;;;;;;;0.38;0.13;;;;;;;11.76;73.03;96688.94;5048133;28;20075;-71
2022/04/07 10:14:38;;;;;;;4.32;0.10;;;;;;;11.85;71.67;96677.38;5041598;28;20024;-71
2022/04/07 10:17:05;;;;;;;0.47;0.15;;;;;;;11.91;71.39;96680.94;5043440;28;20025;-72
2022/04/07 10:19:54;;;;;;;1.95;0.20;;;;;;;11.99;71.64;96652.53;5050834;28;20096;-72
2022/04/07 10:22:38;;;;;;;;;;;;;;;12.09;71.81;96652.56;5040209;28;20104;-71
2022/04/07 10:25:05;;;;;;;1.25;0.10;;;;;;;11.90;71.15;96627.03;5059082;28;19948;-72
2022/04/07 10:27:39;;;;;;;0.75;0.08;;;;;;;12.10;69.49;96658.78;5063046;28;20478;-72
2022/04/07 10:30:06;;;;;;;0.28;0.10;;;;;;;12.11;69.65;96626.00;5032241;28;20040;-72
2022/04/07 10:32:36;;;;;;;3.13;0.20;;;;;;;12.02;69.04;96614.84;5042825;28;20062;-70
2022/04/07 10:35:02;;;;;;;0.98;0.03;;;;;;;12.13;68.08;96604.03;5045408;28;20386;-70
2022/04/07 10:37:30;;;;;;;0.43;0.10;;;;;;;12.19;68.30;96603.81;5037013;28;20022;-68
2022/04/07 10:39:56;;;;;;;0.10;0.10;;;;;;;12.29;67.39;96594.88;5043644;28;20029;-69
2022/04/07 10:42:58;;;;;;;0.00;0.00;;;;;;;12.30;67.95;96598.41;5031924;28;20037;-68
2022/04/07 10:45:33;;;;;;;0.75;0.10;;;;;;;12.38;67.78;96604.09;5041955;28;20033;-69
2022/04/07 10:48:22;;;;;;;0.30;0.00;;;;;;;12.46;66.88;96592.72;5039923;28;20055;-69
2022/04/07 10:50:51;;;;;;;0.88;0.47;;;;;;;12.56;66.92;96610.91;5036644;28;20025;-69
2022/04/07 10:53:30;;;;;;;0.20;0.10;;;;;;;12.63;65.63;96584.34;5043420;28;20025;-69
2022/04/07 10:55:56;;;;;;;0.23;0.10;;;;;;;12.63;66.35;96561.81;5037160;28;20378;-69
2022/04/07 10:58:44;;;;;;;0.10;0.00;;;;;;;12.77;66.51;96591.94;5030405;28;20765;-69
2022/04/07 11:01:36;;;;;;;0.00;0.00;;;;;;;12.76;66.26;96564.00;5031089;28;20057;-69
2022/04/07 11:04:25;;;;;;;0.85;0.10;;;;;;;12.88;65.85;96559.06;5032456;28;20087;-71
2022/04/07 11:07:10;;;;;;;0.00;0.00;;;;;;;12.85;65.33;96578.63;5044400;28;20035;-71
2022/04/07 11:09:54;;;;;;;1.08;0.10;;;;;;;12.84;66.13;96568.88;5040052;28;20017;-71
2022/04/07 11:12:31;;;;;;;4.22;0.20;;;;;;;12.84;66.57;96571.59;5036017;28;20036;-71
2022/04/07 11:15:02;;;;;;;0.73;0.05;;;;;;;12.85;66.39;96548.78;5050661;28;20029;-71
2022/04/07 11:17:38;;;;;;;0.20;0.13;;;;;;;12.79;66.46;96555.31;5035859;28;20124;-68
2022/04/07 11:20:05;;;;;;;0.20;0.20;;;;;;;12.87;66.07;96553.94;5028949;28;20044;-73
2022/04/07 11:22:53;;;;;;;0.08;0.00;;;;;;;13.00;65.68;96547.94;5026816;28;20036;-71
2022/04/07 11:25:32;;;;;;;0.38;0.00;;;;;;;13.09;65.44;96546.28;5028648;28;20521;-68
2022/04/07 11:28:18;;;;;;;0.65;0.10;;;;;;;13.24;65.21;96534.59;5044906;28;20048;-70
2022/04/07 11:30:50;;;;;;;0.15;0.05;;;;;;;13.31;64.80;96520.75;5035608;28;20033;-69
2022/04/07 11:33:25;;;;;;;2.92;0.28;;;;;;;13.39;64.90;96533.75;5033965;28;20112;-67
2022/04/07 11:36:00;;;;;;;1.77;0.10;;;;;;;13.49;64.91;96532.88;5039031;28;20026;-73